首页
METAR-TAF:

METAR-TAF

机场 :

扎達爾, 克罗地亚

纬度: 44-06N, 经度: 015-21E, 海拔: 82米

当前天气观测

该预报发布于10分钟前的06:30 UTC
风速6节,风向东北,在北转西北东转东南之间变化
温度 29°C
湿度 45%
气压 1019 hPa
能见度10公里或以上
1500米以下无云,无积雨云

METAR: LDZD 250630Z 05006KT 340V120 CAVOK 29/16 Q1019 BECMG 06010KT

时间: 08:40 (06:40 UTC)

预报

该预报发布于1小时和15分钟前的05:25 UTC
预报有效从25日的 06点(UTC)到 26日的 06点(UTC)
风速2节,风向多变
能见度10公里或以上
1500米以下无云,无积雨云
成为
从 25日的 06点(UTC)到 25日的 08点(UTC)
风速10节,风向东转东北
几率 30% :
短暂存在
从 25日的 12点(UTC)到 25日的 16点(UTC)
风速8节,风向北转西北

TAF: LDZD 250525Z 2506/2606 VRB02KT CAVOK TX34/2512Z TN22/2603Z BECMG 2506/2508 06010KT PROB30 TEMPO 2512/2516 33008KT

超过4000个机场的气象观测和天气预报(METAR&TAF报告)。

可查询的气象台以黄色和红色小点在地图上表示。

将鼠标移到小点上方,可查看气象台名称。

然后点击查看天气观测和预报。

如需切换地图:点击带黑十字的绿色按钮放大地图;点击带横线的绿色按钮缩小地图;或者点击绿色箭头查看邻近地区的地图。


METAR-TAF: